Time;durP1;ratioP1;P1;durP2;ratioP2;P2;SDS_P1;SDS_P2;PMS_P1;PMS_P2;Temp;Humidity;BMP_temperature;BMP_pressure;BME280_temperature;BME280_humidity;BME280_pressure;Samples;Min_cycle;Max_cycle;Signal;HPM_P1;HPM_P2
2022/07/03 00:02:21;;;;;;;7.95;5.80;;;;;;;24.30;44.98;100155.53;4456220;32;33476;-79
2022/07/03 00:04:56;;;;;;;11.12;5.20;;;;;;;24.31;44.98;100146.00;4455782;32;33941;-78
2022/07/03 00:07:27;;;;;;;9.95;5.20;;;;;;;24.24;45.25;100157.50;4467879;32;33254;-79
2022/07/03 00:10:01;;;;;;;11.23;5.18;;;;;;;24.18;45.44;100157.81;4456298;32;34875;-79
2022/07/03 00:12:32;;;;;;;10.70;5.40;;;;;;;24.07;45.85;100156.16;4469020;32;34741;-78
2022/07/03 00:15:05;;;;;;;7.78;5.40;;;;;;;24.16;45.50;100152.50;4468981;32;34886;-78
2022/07/03 00:17:35;;;;;;;9.18;5.15;;;;;;;24.16;45.45;100160.06;4456035;32;31701;-78
2022/07/03 00:20:07;;;;;;;7.75;5.32;;;;;;;24.21;45.32;100162.84;4456079;32;32265;-79
2022/07/03 00:22:41;;;;;;;8.15;5.40;;;;;;;24.18;45.33;100160.62;4456034;32;35781;-78
2022/07/03 00:25:13;;;;;;;8.10;5.70;;;;;;;24.23;45.28;100152.19;4456469;32;32579;-78
2022/07/03 00:27:46;;;;;;;7.55;5.18;;;;;;;24.10;45.58;100150.00;4468856;32;33482;-79
2022/07/03 00:30:17;;;;;;;8.48;5.65;;;;;;;23.97;45.85;100146.72;4456173;32;33874;-79
2022/07/03 00:32:50;;;;;;;9.38;5.15;;;;;;;24.00;45.84;100144.47;4443144;32;34922;-79
2022/07/03 00:35:24;;;;;;;7.80;5.43;;;;;;;23.96;46.00;100145.03;4468747;32;33944;-78
2022/07/03 00:37:57;;;;;;;8.50;5.32;;;;;;;23.98;46.08;100145.59;4456272;32;33194;-78
2022/07/03 00:40:28;;;;;;;10.25;5.35;;;;;;;23.92;46.27;100149.53;4456141;32;33626;-78
2022/07/03 00:43:04;;;;;;;9.23;5.47;;;;;;;23.94;46.22;100147.28;4455980;32;34296;-78
2022/07/03 00:45:38;;;;;;;11.40;6.00;;;;;;;23.97;46.13;100151.47;4455747;32;32592;-79
2022/07/03 00:48:14;;;;;;;14.15;5.75;;;;;;;23.89;46.34;100149.25;4455798;32;33277;-79
2022/07/03 00:50:57;;;;;;;7.80;5.53;;;;;;;23.96;46.14;100149.78;4456902;32;34498;-78
2022/07/03 00:53:29;;;;;;;7.72;5.57;;;;;;;23.96;46.16;100144.19;4455829;32;35375;-78
2022/07/03 00:56:01;;;;;;;9.18;5.53;;;;;;;23.81;46.47;100141.44;4455589;32;32532;-79
2022/07/03 00:58:35;;;;;;;9.27;5.30;;;;;;;23.82;46.43;100140.31;4455415;32;33570;-79
2022/07/03 01:01:06;;;;;;;7.28;5.37;;;;;;;23.89;46.31;100138.03;4468424;32;34397;-79
2022/07/03 01:03:42;;;;;;;9.52;5.82;;;;;;;23.80;46.62;100134.16;4455908;32;35431;-78
2022/07/03 01:06:16;;;;;;;9.43;6.10;;;;;;;23.85;46.42;100136.94;4455286;32;34582;-78
2022/07/03 01:09:03;;;;;;;11.93;5.75;;;;;;;23.73;46.82;100142.84;4442803;32;31964;-78
2022/07/03 01:11:41;;;;;;;9.15;5.87;;;;;;;23.56;47.31;100131.97;4468251;32;34334;-79
2022/07/03 01:14:23;;;;;;;9.15;5.75;;;;;;;23.61;47.31;100133.91;4468162;32;34410;-79
2022/07/03 01:17:00;;;;;;;9.95;6.57;;;;;;;23.60;47.29;100135.87;4455758;32;33500;-79
2022/07/03 01:19:57;;;;;;;13.43;5.80;;;;;;;23.61;47.28;100128.31;4470319;32;33375;-79
2022/07/03 01:22:42;;;;;;;9.68;5.50;;;;;;;23.57;47.43;100130.84;4468878;32;34462;-78
2022/07/03 01:25:12;;;;;;;8.52;6.18;;;;;;;23.54;47.50;100128.59;4457455;32;34349;-78
2022/07/03 01:28:03;;;;;;;8.75;6.05;;;;;;;23.54;47.52;100128.59;4471251;32;34082;-79
2022/07/03 01:30:36;;;;;;;10.57;6.05;;;;;;;23.43;47.75;100129.72;4457634;32;34129;-78
2022/07/03 01:33:12;;;;;;;8.55;6.25;;;;;;;23.28;48.14;100124.16;4456958;32;33582;-78
2022/07/03 01:35:46;;;;;;;;;;;;;;;23.38;47.86;100123.31;4444565;32;33674;-79
2022/07/03 01:38:17;;;;;;;9.85;5.80;;;;;;;23.37;47.98;100118.84;4457943;32;34291;-79
2022/07/03 01:40:50;;;;;;;9.88;6.55;;;;;;;23.27;48.24;100123.34;4457169;32;32438;-79
2022/07/03 01:43:29;;;;;;;10.88;6.00;;;;;;;23.29;48.18;100123.88;4457552;32;34044;-79
2022/07/03 01:46:03;;;;;;;12.23;5.93;;;;;;;23.29;48.20;100117.44;4457286;32;35129;-78
2022/07/03 01:48:36;;;;;;;10.95;6.15;;;;;;;23.13;48.77;100113.81;4470198;32;34655;-79
2022/07/03 01:51:04;;;;;;;10.73;6.12;;;;;;;23.16;48.66;100116.06;4469986;32;34424;-78
2022/07/03 01:53:41;;;;;;;8.70;5.95;;;;;;;23.14;48.67;100115.50;4457058;32;34226;-78
2022/07/03 01:56:16;;;;;;;8.45;6.07;;;;;;;23.13;48.77;100118.59;4444360;32;33002;-78
2022/07/03 01:58:49;;;;;;;8.68;5.78;;;;;;;23.10;48.89;100113.53;4457490;32;34519;-78
2022/07/03 02:01:33;;;;;;;9.10;5.97;;;;;;;22.98;49.17;100111.87;4443613;32;32698;-79
2022/07/03 02:04:27;;;;;;;9.38;6.22;;;;;;;22.93;49.34;100116.62;4457033;32;33787;-78
2022/07/03 02:07:09;;;;;;;9.75;5.93;;;;;;;23.04;49.07;100115.50;4423679;32;34296;-78
2022/07/03 02:10:05;;;;;;;8.45;5.85;;;;;;;22.99;49.30;100116.34;4469588;32;33939;-78
2022/07/03 02:12:47;;;;;;;8.27;5.77;;;;;;;22.94;49.57;100133.13;4462916;32;33554;-79
2022/07/03 02:15:28;;;;;;;9.32;6.15;;;;;;;22.73;50.41;100130.59;4469787;32;33679;-79
2022/07/03 02:18:21;;;;;;;10.52;6.37;;;;;;;22.77;50.31;100126.09;4456854;32;34658;-79
2022/07/03 02:21:17;;;;;;;8.68;6.07;;;;;;;22.78;50.32;100130.56;4456785;32;32605;-79
2022/07/03 02:24:13;;;;;;;11.90;6.05;;;;;;;22.79;50.20;100119.13;4471152;32;34025;-79
2022/07/03 02:26:45;;;;;;;12.32;6.50;;;;;;;22.73;50.32;100120.25;4449392;32;33263;-78
2022/07/03 02:29:46;;;;;;;8.85;6.07;;;;;;;22.77;50.17;100115.75;4469437;32;34411;-79
2022/07/03 02:32:20;;;;;;;9.45;6.43;;;;;;;22.67;50.43;100125.00;4468422;32;33848;-78
2022/07/03 02:35:02;;;;;;;8.68;6.22;;;;;;;22.67;50.61;100122.19;4469871;32;34378;-79
2022/07/03 02:37:37;;;;;;;10.52;6.40;;;;;;;22.65;50.62;100121.63;4443821;32;32307;-78
2022/07/03 02:40:15;;;;;;;12.25;6.15;;;;;;;22.56;50.85;100128.91;4469384;32;32971;-78
2022/07/03 02:42:57;;;;;;;10.52;6.07;;;;;;;22.60;50.69;100124.44;4456693;32;34746;-79
2022/07/03 02:45:43;;;;;;;9.80;5.93;;;;;;;22.57;50.89;100122.19;4456672;32;33274;-78
2022/07/03 02:48:24;;;;;;;11.15;6.32;;;;;;;22.48;51.41;100137.84;4456378;32;34907;-78
2022/07/03 02:51:06;;;;;;;9.05;6.40;;;;;;;22.55;51.14;100146.81;4469657;32;34571;-78
2022/07/03 02:54:06;;;;;;;9.13;6.45;;;;;;;22.45;51.32;100135.59;4456709;32;32509;-79
2022/07/03 02:56:43;;;;;;;12.98;6.35;;;;;;;22.46;51.20;100137.28;4451816;32;33238;-78
2022/07/03 02:59:25;;;;;;;12.48;6.43;;;;;;;22.46;51.17;100137.28;4469504;32;33655;-74
2022/07/03 03:02:07;;;;;;;12.07;6.50;;;;;;;22.71;50.48;100133.69;4456489;32;35409;-82
2022/07/03 03:04:41;;;;;;;8.73;6.57;;;;;;;22.50;51.14;100129.16;4456665;32;33907;-81
2022/07/03 03:07:15;;;;;;;8.50;6.55;;;;;;;22.57;50.89;100127.78;4456621;32;34296;-81
2022/07/03 03:09:49;;;;;;;9.73;6.55;;;;;;;22.56;50.89;100125.25;4456493;32;32366;-81
2022/07/03 03:12:30;;;;;;;11.95;6.37;;;;;;;22.49;51.09;100131.13;4456390;32;34369;-82
2022/07/03 03:15:04;;;;;;;10.93;6.85;;;;;;;22.43;51.37;100139.78;4455780;32;34624;-81
2022/07/03 03:17:52;;;;;;;9.10;6.18;;;;;;;22.38;51.59;100140.59;4469293;32;33539;-81
2022/07/03 03:20:26;;;;;;;11.00;6.60;;;;;;;22.34;51.81;100133.88;4456509;32;33899;-81
2022/07/03 03:23:22;;;;;;;11.07;6.20;;;;;;;22.27;51.97;100130.50;4456064;32;34108;-81
2022/07/03 03:25:52;;;;;;;12.13;6.78;;;;;;;22.21;52.22;100124.06;4460674;32;34003;-81
2022/07/03 03:28:22;;;;;;;9.02;6.32;;;;;;;22.07;53.19;100130.47;4456663;32;33945;-82
2022/07/03 03:30:56;;;;;;;9.57;6.30;;;;;;;22.27;52.54;100130.50;4457102;32;34478;-81
2022/07/03 03:33:24;;;;;;;10.30;6.82;;;;;;;22.39;52.11;100122.72;4443389;32;33301;-82
2022/07/03 03:35:55;;;;;;;9.05;6.62;;;;;;;22.37;52.25;100130.53;4443472;32;32572;-81
2022/07/03 03:38:28;;;;;;;11.35;6.90;;;;;;;22.42;52.26;100127.75;4469407;32;34156;-81
2022/07/03 03:41:01;;;;;;;9.82;6.35;;;;;;;22.43;52.09;100123.00;4455449;32;34484;-81
2022/07/03 03:43:33;;;;;;;10.82;7.20;;;;;;;22.43;52.16;100126.62;4456631;32;35049;-81
2022/07/03 03:46:05;;;;;;;9.45;6.57;;;;;;;22.36;52.49;100114.87;4443725;32;32608;-82
2022/07/03 03:48:35;;;;;;;10.88;6.68;;;;;;;22.31;52.81;100112.06;4443685;32;31704;-81
2022/07/03 03:51:09;;;;;;;11.23;6.40;;;;;;;22.32;52.90;100108.16;4456936;32;33782;-81
2022/07/03 03:53:39;;;;;;;9.05;6.43;;;;;;;22.32;53.04;100111.78;4456733;32;33699;-81
2022/07/03 03:56:14;;;;;;;8.85;6.35;;;;;;;22.47;52.74;100112.94;4443589;32;31939;-81
2022/07/03 03:58:49;;;;;;;10.52;6.87;;;;;;;22.27;53.40;100122.94;4469203;32;33786;-82
2022/07/03 04:01:20;;;;;;;9.32;6.95;;;;;;;22.90;51.28;100134.81;4469467;32;34775;-81
2022/07/03 04:03:53;;;;;;;9.40;6.70;;;;;;;22.74;51.66;100126.69;4456155;32;34311;-82
2022/07/03 04:06:24;;;;;;;11.52;7.12;;;;;;;22.60;52.58;100138.41;4469111;32;34689;-81
2022/07/03 04:08:52;;;;;;;11.73;7.25;;;;;;;22.83;51.92;100128.66;4468950;32;33598;-81
2022/07/03 04:11:26;;;;;;;11.05;6.75;;;;;;;23.00;51.24;100142.37;4455979;32;32354;-82
2022/07/03 04:13:58;;;;;;;10.07;7.12;;;;;;;23.09;50.75;100140.69;4443765;32;33990;-82
2022/07/03 04:16:29;;;;;;;10.00;7.30;;;;;;;22.85;51.60;100134.81;4456262;32;34102;-81
2022/07/03 04:18:57;;;;;;;9.05;7.25;;;;;;;22.94;51.45;100144.34;4456383;32;35086;-81
2022/07/03 04:21:28;;;;;;;10.32;7.75;;;;;;;23.23;50.68;100140.97;4443990;32;32424;-81
2022/07/03 04:23:59;;;;;;;12.82;7.12;;;;;;;23.02;51.11;100139.31;4455970;32;32770;-82
2022/07/03 04:26:35;;;;;;;11.98;7.40;;;;;;;23.02;51.19;100136.50;4468867;32;33826;-74
2022/07/03 04:29:05;;;;;;;9.93;6.87;;;;;;;22.99;51.37;100130.34;4468820;32;34205;-76
2022/07/03 04:31:33;;;;;;;9.50;6.87;;;;;;;23.37;50.50;100124.44;4456166;32;33897;-76
2022/07/03 04:34:01;;;;;;;10.95;7.15;;;;;;;23.38;50.58;100126.97;4468833;32;35076;-76
2022/07/03 04:36:33;;;;;;;11.52;7.40;;;;;;;23.21;51.12;100130.06;4456311;32;33730;-77
2022/07/03 04:39:09;;;;;;;12.05;7.75;;;;;;;23.23;51.25;100118.56;4468862;32;34181;-77
2022/07/03 04:41:37;;;;;;;11.38;7.80;;;;;;;23.20;51.51;100119.97;4456092;32;34729;-76
2022/07/03 04:44:05;;;;;;;9.18;7.20;;;;;;;23.23;51.48;100110.16;4455931;32;34446;-77
2022/07/03 04:46:32;;;;;;;11.18;7.35;;;;;;;23.34;51.23;100111.84;4468885;32;33940;-77
2022/07/03 04:49:00;;;;;;;9.90;7.18;;;;;;;23.23;51.83;100108.22;4455495;32;33532;-75
2022/07/03 04:51:31;;;;;;;10.45;7.40;;;;;;;23.27;51.79;100112.13;4468226;32;34034;-75
2022/07/03 04:54:03;;;;;;;9.95;7.50;;;;;;;23.31;52.03;100112.41;4469695;32;34562;-75
2022/07/03 04:56:37;;;;;;;10.63;7.60;;;;;;;23.52;51.44;100111.22;4456191;32;34522;-75
2022/07/03 04:59:04;;;;;;;11.65;7.20;;;;;;;23.65;51.22;100101.41;4469547;32;33266;-75
2022/07/03 05:01:35;;;;;;;10.93;7.40;;;;;;;23.83;50.64;100106.38;4435684;32;32168;-75
2022/07/03 05:04:08;;;;;;;8.80;7.18;;;;;;;23.64;51.43;100102.53;4469646;32;33485;-75
2022/07/03 05:06:39;;;;;;;10.52;8.13;;;;;;;23.72;51.30;100099.13;4469499;32;33969;-75
2022/07/03 05:09:07;;;;;;;9.70;7.50;;;;;;;23.71;51.64;100105.03;4441878;32;31714;-75
2022/07/03 05:11:40;;;;;;;9.43;7.07;;;;;;;23.79;51.64;100096.03;4442753;32;33807;-75
2022/07/03 05:14:14;;;;;;;10.88;7.85;;;;;;;23.83;51.75;100100.78;4455601;32;34241;-75
2022/07/03 05:16:44;;;;;;;10.80;7.50;;;;;;;23.93;51.58;100097.94;4455299;32;34019;-75
2022/07/03 05:19:12;;;;;;;10.77;7.80;;;;;;;24.11;51.51;100087.16;4455683;32;33235;-75
2022/07/03 05:21:42;;;;;;;13.32;7.60;;;;;;;24.01;53.14;100090.06;4455493;32;34557;-75
2022/07/03 05:24:12;;;;;;;11.12;7.25;;;;;;;24.24;52.01;100089.34;4455263;32;35215;-75
2022/07/03 05:26:45;;;;;;;12.70;8.27;;;;;;;24.27;52.12;100084.03;4469503;32;34711;-75
2022/07/03 05:29:17;;;;;;;12.13;8.50;;;;;;;24.30;52.29;100080.63;4443009;32;32347;-75
2022/07/03 05:31:45;;;;;;;11.50;7.60;;;;;;;24.45;51.76;100087.28;4455203;32;34058;-75
2022/07/03 05:34:16;;;;;;;10.50;7.95;;;;;;;24.52;51.69;100085.84;4455346;32;35039;-76
2022/07/03 05:36:46;;;;;;;10.98;7.75;;;;;;;24.60;51.57;100090.00;4455543;32;34231;-75
2022/07/03 05:39:32;;;;;;;11.23;8.07;;;;;;;24.82;51.44;100097.94;4455346;32;33404;-75
2022/07/03 05:42:05;;;;;;;10.20;7.65;;;;;;;24.74;51.62;100093.78;4444123;32;32406;-79
2022/07/03 05:44:35;;;;;;;10.32;7.37;;;;;;;24.89;51.08;100092.81;4455520;32;34478;-79
2022/07/03 05:47:03;;;;;;;9.75;6.80;;;;;;;24.89;51.06;100084.41;4454715;32;34359;-79
2022/07/03 05:49:31;;;;;;;10.38;7.60;;;;;;;24.95;52.00;100095.28;4442092;32;32652;-77
2022/07/03 05:52:02;;;;;;;9.68;7.37;;;;;;;25.19;50.95;100100.16;4442205;32;34404;-76
2022/07/03 05:54:34;;;;;;;11.32;7.60;;;;;;;25.33;50.49;100098.34;4455210;32;35438;-77
2022/07/03 05:57:09;;;;;;;10.13;7.18;;;;;;;25.35;50.71;100098.06;4442753;32;33796;-77
2022/07/03 05:59:40;;;;;;;9.57;7.60;;;;;;;25.52;50.17;100095.59;4441614;32;32805;-77
2022/07/03 06:02:15;;;;;;;12.68;7.57;;;;;;;25.61;50.26;100103.06;4441982;32;31943;-77
2022/07/03 06:04:46;;;;;;;9.57;7.35;;;;;;;25.67;49.82;100103.88;4456593;32;35096;-77
2022/07/03 06:07:16;;;;;;;11.60;7.32;;;;;;;25.71;49.34;100107.78;4444120;32;33830;-77
2022/07/03 06:09:48;;;;;;;9.23;7.15;;;;;;;25.77;49.65;100106.59;4444534;32;32164;-78
2022/07/03 06:12:15;;;;;;;11.73;7.70;;;;;;;25.84;48.90;100098.63;4444705;32;33838;-77
2022/07/03 06:14:43;;;;;;;11.75;7.78;;;;;;;26.01;48.98;100105.69;4455463;32;33709;-75
2022/07/03 06:17:17;;;;;;;9.82;7.35;;;;;;;26.08;48.54;100115.44;4457020;32;34801;-77
2022/07/03 06:19:44;;;;;;;12.90;7.47;;;;;;;26.15;49.00;100112.28;4436215;32;31927;-77
2022/07/03 06:22:15;;;;;;;10.07;6.65;;;;;;;26.23;47.84;100115.25;4447505;32;33689;-76
2022/07/03 06:24:43;;;;;;;10.25;7.18;;;;;;;26.29;47.54;100118.84;4445996;32;34020;-77
2022/07/03 06:27:10;;;;;;;9.18;7.32;;;;;;;26.23;46.92;100122.84;4443639;32;33931;-77
2022/07/03 06:29:38;;;;;;;10.05;7.00;;;;;;;26.28;46.54;100108.72;4443636;32;32519;-77
2022/07/03 06:32:06;;;;;;;10.82;7.78;;;;;;;26.50;46.42;100114.63;4456425;32;33787;-77
2022/07/03 06:34:34;;;;;;;10.77;7.18;;;;;;;26.53;47.09;100113.19;4430898;32;33098;-77
2022/07/03 06:37:02;;;;;;;10.25;7.30;;;;;;;26.36;47.79;100116.50;4443920;32;33844;-77
2022/07/03 06:39:30;;;;;;;9.63;7.07;;;;;;;26.55;47.76;100111.72;4431059;32;32523;-77
2022/07/03 06:42:00;;;;;;;9.18;6.93;;;;;;;26.65;47.47;100109.91;4443849;32;33553;-77
2022/07/03 06:44:28;;;;;;;8.82;6.75;;;;;;;26.79;47.12;100102.34;4443912;32;34606;-77
2022/07/03 06:46:56;;;;;;;12.65;8.30;;;;;;;26.91;46.55;100097.91;4431076;32;33372;-77
2022/07/03 06:49:26;;;;;;;14.75;9.52;;;;;;;26.94;46.02;100102.09;4456541;32;34032;-77
2022/07/03 06:51:56;;;;;;;26.05;14.60;;;;;;;27.03;46.09;100100.28;4443780;32;33902;-77
2022/07/03 06:54:24;;;;;;;16.85;9.82;;;;;;;27.12;45.44;100098.41;4443676;32;34106;-74
2022/07/03 06:56:52;;;;;;;17.65;10.93;;;;;;;27.25;45.34;100090.31;4443604;32;34104;-73
2022/07/03 06:59:19;;;;;;;10.13;6.60;;;;;;;27.32;44.97;100090.72;4443698;32;33042;-75
2022/07/03 07:01:53;;;;;;;10.00;6.87;;;;;;;27.11;45.98;100096.75;4470442;32;33776;-78
2022/07/03 07:04:21;;;;;;;10.35;7.32;;;;;;;27.15;46.21;100094.16;4460373;32;34509;-78
2022/07/03 07:06:48;;;;;;;11.50;6.87;;;;;;;27.23;45.24;100083.00;4456744;32;34181;-77
2022/07/03 07:09:21;;;;;;;10.45;7.28;;;;;;;27.41;45.15;100092.50;4469093;32;32984;-77
2022/07/03 07:11:52;;;;;;;10.10;7.43;;;;;;;27.27;45.71;100085.22;4457365;32;33743;-77
2022/07/03 07:14:20;;;;;;;9.68;7.28;;;;;;;27.48;45.32;100084.47;4468655;32;34185;-77
2022/07/03 07:16:50;;;;;;;9.45;7.47;;;;;;;27.45;45.06;100079.47;4456285;32;33880;-78
2022/07/03 07:19:18;;;;;;;9.98;7.12;;;;;;;27.61;44.48;100085.69;4456901;32;33325;-78
2022/07/03 07:21:46;;;;;;;9.80;6.93;;;;;;;27.71;44.23;100079.84;4456728;32;33812;-79
2022/07/03 07:24:14;;;;;;;10.88;7.75;;;;;;;27.85;43.96;100083.50;4469558;32;34381;-75
2022/07/03 07:26:41;;;;;;;10.27;6.97;;;;;;;27.89;44.09;100080.87;4470631;32;34506;-77
2022/07/03 07:29:10;;;;;;;9.20;6.87;;;;;;;28.02;44.06;100077.19;4469253;32;34013;-78
2022/07/03 07:31:38;;;;;;;9.98;6.95;;;;;;;28.07;42.57;100087.53;4445989;32;34152;-79
2022/07/03 07:34:08;;;;;;;11.75;7.18;;;;;;;28.11;42.29;100088.56;4429708;32;32852;-79
2022/07/03 07:36:36;;;;;;;11.55;7.30;;;;;;;28.22;42.06;100077.91;4449597;32;33923;-79
2022/07/03 07:39:04;;;;;;;8.93;6.97;;;;;;;28.21;42.07;100085.53;4448633;32;33214;-78
2022/07/03 07:41:34;;;;;;;10.25;6.85;;;;;;;28.15;42.23;100086.78;4452299;32;33021;-78
2022/07/03 07:44:02;;;;;;;9.10;7.18;;;;;;;28.31;42.27;100090.12;4443937;32;35462;-78
2022/07/03 07:46:31;;;;;;;9.65;7.50;;;;;;;28.32;42.25;100083.34;4443966;32;34010;-81
2022/07/03 07:48:59;;;;;;;10.75;7.37;;;;;;;28.45;41.79;100088.13;4456841;32;34094;-79
2022/07/03 07:51:27;;;;;;;10.48;6.90;;;;;;;28.45;41.78;100090.94;4469879;32;33883;-78
2022/07/03 07:53:57;;;;;;;9.93;6.87;;;;;;;28.55;41.77;100098.34;4464281;32;35381;-78
2022/07/03 07:56:26;;;;;;;11.85;9.15;;;;;;;28.69;41.29;100097.13;4456760;32;34921;-78
2022/07/03 07:59:17;;;;;;;11.25;7.25;;;;;;;28.72;41.67;100088.00;4457183;32;33454;-78
2022/07/03 08:07:35;;;;;;;9.05;6.65;;;;;;;28.88;40.60;100094.13;4453856;32;32701;-79
2022/07/03 08:10:04;;;;;;;14.23;7.78;;;;;;;29.12;40.33;100094.66;4456040;32;33837;-78
2022/07/03 08:12:31;;;;;;;9.98;7.32;;;;;;;29.06;40.32;100097.94;4456384;32;33659;-79
2022/07/03 08:14:59;;;;;;;9.13;6.22;;;;;;;29.16;40.58;100095.69;4456150;32;34014;-79
2022/07/03 08:17:27;;;;;;;9.38;6.93;;;;;;;29.31;40.26;100088.75;4468863;32;34749;-79
2022/07/03 08:19:57;;;;;;;13.18;7.22;;;;;;;29.38;41.06;100091.97;4456157;32;33277;-79
2022/07/03 08:22:27;;;;;;;10.05;7.40;;;;;;;29.47;40.62;100095.69;4456014;32;33793;-78
2022/07/03 08:24:55;;;;;;;9.40;7.35;;;;;;;29.62;40.18;100091.63;4455949;32;34627;-82
2022/07/03 08:27:22;;;;;;;9.73;7.75;;;;;;;29.64;39.58;100094.94;4469218;32;34953;-80
2022/07/03 08:29:50;;;;;;;11.43;6.85;;;;;;;29.56;39.10;100092.91;4456111;32;32951;-81
2022/07/03 08:32:18;;;;;;;8.98;6.12;;;;;;;29.72;38.94;100091.31;4467931;32;33846;-80
2022/07/03 08:34:45;;;;;;;10.85;7.05;;;;;;;29.83;38.37;100089.88;4466083;32;34522;-80
2022/07/03 08:37:13;;;;;;;10.05;6.72;;;;;;;29.93;38.33;100090.72;4451689;32;34209;-77
2022/07/03 08:39:44;;;;;;;12.25;6.85;;;;;;;30.01;37.63;100090.78;4453040;32;33225;-81
2022/07/03 08:42:12;;;;;;;8.40;6.28;;;;;;;30.13;38.19;100090.12;4440268;32;34526;-80
2022/07/03 08:44:43;;;;;;;8.98;7.22;;;;;;;30.22;37.51;100087.31;4440685;32;34644;-77
2022/07/03 08:47:49;;;;;;;66.75;11.60;;;;;;;30.26;37.59;100088.34;4439726;32;33393;-78
2022/07/03 08:50:37;;;;;;;14.45;6.87;;;;;;;30.44;37.58;100088.03;4452510;32;32769;-78
2022/07/03 08:53:24;;;;;;;10.88;6.25;;;;;;;30.48;37.39;100082.53;4428548;32;32239;-78
2022/07/03 08:56:17;;;;;;;13.48;6.53;;;;;;;30.48;36.09;100083.38;4452979;32;34448;-79
2022/07/03 08:59:08;;;;;;;10.90;6.20;;;;;;;30.79;36.41;100080.38;4464866;32;33926;-83
2022/07/03 09:02:04;;;;;;;8.68;6.50;;;;;;;30.91;35.42;100079.72;4441550;32;32081;-85
2022/07/03 09:05:01;;;;;;;8.60;6.68;;;;;;;31.08;35.56;100068.34;4445582;32;33955;-84
2022/07/03 09:07:56;;;;;;;13.82;6.72;;;;;;;31.35;35.16;100075.63;4445348;32;32632;-83
2022/07/03 09:10:47;;;;;;;9.73;6.37;;;;;;;31.52;35.09;100066.22;4460659;32;33858;-83
2022/07/03 09:13:43;;;;;;;9.18;6.18;;;;;;;31.39;34.36;100072.94;4455960;32;34330;-82
2022/07/03 09:16:27;;;;;;;9.65;6.78;;;;;;;31.52;34.01;100063.38;4466612;32;35239;-83
2022/07/03 09:19:04;;;;;;;10.02;5.87;;;;;;;31.56;33.88;100067.22;4444505;32;32925;-82
2022/07/03 09:22:03;;;;;;;8.35;6.35;;;;;;;31.68;33.10;100058.84;4443810;32;32397;-82
2022/07/03 09:24:50;;;;;;;9.15;5.90;;;;;;;31.98;33.87;100053.16;4435600;32;32722;-82
2022/07/03 09:27:43;;;;;;;10.93;7.57;;;;;;;32.17;33.25;100062.06;4461993;32;33985;-81
2022/07/03 09:30:34;;;;;;;8.63;6.18;;;;;;;32.26;33.11;100048.66;4459970;32;35173;-86
2022/07/03 09:33:36;;;;;;;7.70;5.50;;;;;;;32.41;31.35;100050.91;4440183;32;33359;-80
2022/07/03 09:36:12;;;;;;;6.75;5.18;;;;;;;32.47;30.67;100045.00;4462779;32;33566;-84
2022/07/03 09:38:46;;;;;;;7.00;5.37;;;;;;;32.77;31.65;100043.75;4460058;32;33972;-81
2022/07/03 09:41:22;;;;;;;8.00;5.80;;;;;;;32.79;31.37;100041.38;4452240;32;34208;-80
2022/07/03 09:43:52;;;;;;;7.78;5.03;;;;;;;32.90;30.51;100038.94;4449134;32;33788;-82
2022/07/03 09:46:48;;;;;;;7.57;5.07;;;;;;;32.99;30.59;100031.16;4443829;32;31719;-82
2022/07/03 09:49:48;;;;;;;6.70;4.55;;;;;;;33.06;29.84;100022.88;4456365;32;33532;-82
2022/07/03 09:52:53;;;;;;;8.95;5.35;;;;;;;33.22;30.31;100028.69;4468999;32;33968;-77
2022/07/03 09:55:26;;;;;;;10.85;6.00;;;;;;;33.49;30.08;100022.38;4444634;32;33931;-78
2022/07/03 09:58:27;;;;;;;10.48;5.60;;;;;;;33.59;30.12;100021.09;4455955;32;32672;-78
2022/07/03 10:01:22;;;;;;;8.07;4.82;;;;;;;33.61;30.10;100018.72;4467925;32;33670;-79
2022/07/03 10:04:28;;;;;;;7.72;4.90;;;;;;;33.89;29.12;100024.53;4445581;32;34509;-82
2022/07/03 10:07:44;;;;;;;6.87;5.05;;;;;;;33.86;27.61;100016.72;4444909;32;32922;-81
2022/07/03 10:10:14;;;;;;;8.90;4.93;;;;;;;34.14;27.69;100011.09;4443394;32;34073;-82
2022/07/03 10:13:44;;;;;;;9.00;4.82;;;;;;;34.50;28.72;100010.19;4455940;32;33351;-82
2022/07/03 10:17:11;;;;;;;7.85;5.68;;;;;;;34.45;27.89;100010.47;4447539;32;33733;-82
2022/07/03 10:19:48;;;;;;;8.07;5.00;;;;;;;34.83;28.42;100002.25;4467505;32;35293;-82
2022/07/03 10:22:23;;;;;;;7.23;4.30;;;;;;;34.88;28.03;100001.97;4450530;32;33444;-81
2022/07/03 10:24:50;;;;;;;7.60;4.37;;;;;;;34.90;25.94;100008.16;4447966;32;33479;-81
2022/07/03 10:27:21;;;;;;;8.02;4.15;;;;;;;34.64;25.55;99997.19;4461875;32;34486;-81
2022/07/03 10:29:57;;;;;;;9.15;4.30;;;;;;;35.20;26.39;99996.28;4447683;32;34521;-80
2022/07/03 10:32:31;;;;;;;7.07;4.22;;;;;;;35.47;25.59;99988.88;4449267;32;31456;-83
2022/07/03 10:35:01;;;;;;;8.40;4.43;;;;;;;35.67;26.07;99981.22;4441237;32;32209;-81
2022/07/03 10:37:41;;;;;;;6.65;4.10;;;;;;;35.77;25.12;99983.50;4447455;32;32983;-81
2022/07/03 10:56:31;;;;;;;7.78;3.60;;;;;;;36.53;23.49;99962.81;4460058;32;33057;-82
2022/07/03 10:59:44;;;;;;;6.37;3.30;;;;;;;36.69;23.21;99965.59;4409370;32;31908;-81
2022/07/03 11:02:52;;;;;;;9.32;3.72;;;;;;;36.26;22.89;99964.72;4429775;32;32200;-77
2022/07/03 11:09:58;;;;;;;16.20;4.00;;;;;;;36.72;24.77;99956.25;4454543;32;34771;-77
2022/07/03 11:13:05;;;;;;;23.50;4.72;;;;;;;36.94;22.74;99954.66;4430432;32;33657;-77
2022/07/03 11:15:49;;;;;;;14.55;4.55;;;;;;;37.24;23.26;99955.66;4454267;32;33375;-77
2022/07/03 11:18:32;;;;;;;11.95;4.18;;;;;;;36.75;23.17;99951.84;4414672;32;32930;-77
2022/07/03 11:21:22;;;;;;;8.52;3.87;;;;;;;37.04;23.44;99944.62;4429102;32;32572;-81
2022/07/03 11:23:53;;;;;;;8.88;3.95;;;;;;;36.96;22.80;99951.44;4441057;32;33917;-80
2022/07/03 11:26:22;;;;;;;8.00;3.95;;;;;;;36.96;23.38;99952.25;4440911;32;34241;-80
2022/07/03 11:28:51;;;;;;;8.00;3.90;;;;;;;36.72;23.18;99944.00;4428799;32;34517;-81
2022/07/03 11:31:22;;;;;;;6.53;4.00;;;;;;;37.19;22.50;99944.47;4441038;32;34787;-80
2022/07/03 11:33:53;;;;;;;8.05;3.95;;;;;;;37.43;22.67;99940.44;4428269;32;32721;-80
2022/07/03 11:36:21;;;;;;;8.13;4.62;;;;;;;37.39;22.76;99939.53;4440777;32;33637;-80
2022/07/03 11:39:10;;;;;;;19.15;5.28;;;;;;;37.33;22.81;99940.25;4440410;32;33873;-80
2022/07/03 11:41:38;;;;;;;7.80;4.03;;;;;;;37.69;23.39;99928.19;4427535;32;33806;-79
2022/07/03 11:44:17;;;;;;;16.80;5.07;;;;;;;37.84;22.96;99920.62;4437257;32;34201;-80
2022/07/03 11:47:03;;;;;;;5.47;3.45;;;;;;;37.85;22.85;99925.13;4424903;32;32378;-80
2022/07/03 11:49:51;;;;;;;8.10;4.07;;;;;;;37.97;22.08;99910.56;4433870;32;218331;-81
2022/07/03 11:52:43;;;;;;;7.25;4.00;;;;;;;37.92;21.68;99922.38;4453352;32;34550;-80
2022/07/03 11:55:48;;;;;;;12.90;4.25;;;;;;;38.10;22.67;99909.13;4414492;32;31955;-81
2022/07/03 11:58:22;;;;;;;7.20;3.67;;;;;;;38.10;22.44;99906.25;4425029;32;33785;-81
2022/07/03 12:04:50;;;;;;;6.35;3.50;;;;;;;38.21;23.03;99900.69;4467360;32;34699;-81
2022/07/03 12:08:19;;;;;;;8.70;3.60;;;;;;;38.33;22.17;99888.16;4460350;32;31657;-75
2022/07/03 12:11:17;;;;;;;6.37;3.75;;;;;;;38.50;21.79;99891.19;4451742;32;33196;-82
2022/07/03 12:18:09;;;;;;;7.72;3.67;;;;;;;38.57;20.85;99890.44;4452293;32;33405;-83
2022/07/03 12:20:47;;;;;;;7.05;2.85;;;;;;;38.41;21.06;99889.84;4449579;32;32063;-84
2022/07/03 12:23:17;;;;;;;9.25;3.80;;;;;;;38.18;20.46;99890.84;4443323;32;32314;-83
2022/07/03 12:25:44;;;;;;;8.07;3.20;;;;;;;38.39;20.75;99880.81;4456347;32;34588;-83
2022/07/03 12:28:13;;;;;;;5.45;3.10;;;;;;;38.35;21.61;99865.63;4456091;32;34018;-84
2022/07/03 12:34:19;;;;;;;6.57;2.67;;;;;;;38.44;21.23;99866.94;4454483;32;32329;-79
2022/07/03 12:37:54;;;;;;;8.40;2.87;;;;;;;38.35;19.95;99854.16;4447175;32;35158;-82
2022/07/03 12:40:36;;;;;;;5.85;2.30;;;;;;;38.52;21.09;99859.25;4427948;32;34752;-82
2022/07/03 12:46:22;;;;;;;7.82;2.83;;;;;;;38.26;21.32;99856.53;4467764;32;32291;-84
2022/07/03 12:49:21;;;;;;;5.47;2.40;;;;;;;37.99;20.29;99859.44;4456546;32;33875;-83